createdAt,value
2017-07-12T05:42:53.328Z,25.60
2017-07-12T05:45:22.571Z,21.07
2017-07-12T05:47:51.124Z,22.37
2017-07-12T05:50:19.575Z,22.80
2017-07-12T05:52:48.099Z,27.20
2017-07-12T05:55:17.331Z,26.30
2017-07-12T05:57:45.972Z,17.30
2017-07-12T06:00:14.546Z,18.40
2017-07-12T06:02:42.939Z,21.07
2017-07-12T06:05:13.114Z,19.30
2017-07-12T06:07:42.254Z,26.90
2017-07-12T06:10:10.601Z,17.03
2017-07-12T06:12:39.290Z,17.30
2017-07-12T06:15:12.126Z,16.47
2017-07-12T06:17:40.954Z,16.03
2017-07-12T06:20:09.301Z,16.90
2017-07-12T06:22:37.991Z,21.33
2017-07-12T06:25:06.953Z,18.33
2017-07-12T06:27:35.375Z,15.80
2017-07-12T06:30:04.916Z,27.57
2017-07-12T06:32:33.846Z,23.20
2017-07-12T06:35:02.181Z,12.93
2017-07-12T06:37:30.581Z,12.13
2017-07-12T06:39:59.134Z,17.57
2017-07-12T06:42:28.591Z,22.00
2017-07-12T06:44:57.791Z,13.20
2017-07-12T06:47:26.432Z,12.40
2017-07-12T06:49:54.852Z,15.93
2017-07-12T06:52:23.310Z,17.60
2017-07-12T06:54:52.609Z,22.30
2017-07-12T06:57:21.154Z,19.30
2017-07-12T06:59:50.691Z,24.17
2017-07-12T07:02:19.994Z,17.57
2017-07-12T07:04:48.680Z,16.40
2017-07-12T07:07:17.106Z,15.03
2017-07-12T07:09:45.570Z,15.40
2017-07-12T07:12:14.037Z,19.13
2017-07-12T07:14:42.376Z,18.90
2017-07-12T07:17:11.764Z,23.73
2017-07-12T07:19:40.101Z,21.03
2017-07-12T07:22:08.487Z,20.00
2017-07-12T07:24:36.960Z,21.13
2017-07-12T07:27:05.284Z,26.17
2017-07-12T07:29:33.617Z,27.63
2017-07-12T07:32:03.013Z,29.77
2017-07-12T07:34:32.237Z,28.77
2017-07-12T07:37:01.613Z,28.53
2017-07-12T07:39:30.637Z,29.80
2017-07-12T07:41:58.986Z,23.17
2017-07-12T07:44:27.342Z,31.20
2017-07-12T07:46:57.314Z,25.37
2017-07-12T07:49:25.733Z,26.13
2017-07-12T07:51:54.129Z,32.93
2017-07-12T07:54:22.862Z,37.60
2017-07-12T07:56:52.297Z,26.60
2017-07-12T07:59:20.746Z,23.67
2017-07-12T08:01:50.149Z,21.63
2017-07-12T08:04:18.583Z,25.23
2017-07-12T08:06:46.964Z,34.73
2017-07-12T08:09:15.514Z,29.67
2017-07-12T08:11:44.833Z,20.73
2017-07-12T08:14:13.241Z,18.67
2017-07-12T08:16:43.075Z,21.90
2017-07-12T08:19:12.194Z,24.00
2017-07-12T08:21:40.677Z,20.70
2017-07-12T08:24:09.337Z,22.80
2017-07-12T08:26:38.737Z,20.13
2017-07-12T08:29:07.068Z,19.23
2017-07-12T08:31:35.517Z,16.03
2017-07-12T08:34:05.643Z,19.17
2017-07-12T08:36:33.999Z,13.57
2017-07-12T08:39:02.911Z,15.30
2017-07-12T08:41:31.239Z,20.30
2017-07-12T08:43:59.670Z,17.02
2017-07-12T08:46:29.382Z,15.53
2017-07-12T08:48:57.869Z,19.53
2017-07-12T08:51:26.677Z,19.13
2017-07-12T08:53:55.583Z,20.30
2017-07-12T08:56:24.733Z,21.30
2017-07-12T08:58:53.088Z,17.10
2017-07-12T09:01:21.936Z,15.90
2017-07-12T09:03:50.314Z,18.13
2017-07-12T09:06:18.707Z,14.73
2017-07-12T09:08:48.207Z,9.90
2017-07-12T09:11:16.581Z,14.10
2017-07-12T09:13:45.022Z,11.87
2017-07-12T09:16:13.809Z,13.13
2017-07-12T09:18:42.161Z,11.10
2017-07-12T09:21:10.587Z,11.87
2017-07-12T09:23:39.241Z,11.93
2017-07-12T09:33:32.999Z,8.63
2017-07-12T09:36:01.402Z,9.40
2017-07-12T09:38:30.432Z,6.93
2017-07-12T09:40:59.515Z,8.83
2017-07-12T09:43:28.623Z,8.63
2017-07-12T09:45:57.734Z,6.80
2017-07-12T09:48:26.052Z,7.57
2017-07-12T09:50:55.248Z,12.03
2017-07-12T09:53:24.245Z,6.20
2017-07-12T09:55:52.621Z,8.80
2017-07-12T09:58:21.294Z,5.70
2017-07-12T10:00:50.809Z,7.43
2017-07-12T10:03:20.006Z,7.83
2017-07-12T10:05:48.386Z,7.07
2017-07-12T10:08:16.805Z,7.17
2017-07-12T10:10:45.191Z,2.90
2017-07-12T10:13:13.560Z,3.67
2017-07-12T10:15:42.693Z,9.40
2017-07-12T10:18:11.007Z,3.47
2017-07-12T10:20:40.081Z,7.67
2017-07-12T10:23:09.606Z,5.43
2017-07-12T10:25:37.931Z,2.47
2017-07-12T10:28:06.249Z,3.90
2017-07-12T10:30:34.617Z,3.23
2017-07-12T10:33:02.955Z,2.40
2017-07-12T10:35:31.275Z,9.50
2017-07-12T10:37:59.864Z,1.87
2017-07-12T10:40:28.203Z,7.80
2017-07-12T10:42:57.313Z,5.10
2017-07-12T10:45:26.329Z,2.63
2017-07-12T10:47:54.729Z,4.00
2017-07-12T10:50:23.986Z,4.13
2017-07-12T10:52:52.746Z,8.30
2017-07-12T10:55:21.171Z,3.40
2017-07-12T10:57:49.609Z,4.17
2017-07-12T11:00:18.648Z,6.57
2017-07-12T11:02:47.029Z,6.57
2017-07-12T11:05:16.132Z,3.30
2017-07-12T11:07:44.926Z,2.70
2017-07-12T11:10:13.517Z,2.93
2017-07-12T11:12:41.865Z,3.37
2017-07-12T11:15:11.096Z,6.83
2017-07-12T11:17:39.416Z,4.20
2017-07-12T11:20:07.761Z,3.27
2017-07-12T11:22:37.802Z,7.33
2017-07-12T11:25:06.136Z,6.47
2017-07-12T11:27:36.442Z,3.33
2017-07-12T11:30:04.960Z,5.80
2017-07-12T11:32:33.434Z,3.73
2017-07-12T11:35:01.779Z,6.20
2017-07-12T11:37:30.946Z,5.10
2017-07-12T11:39:59.267Z,3.27
2017-07-12T11:42:28.351Z,3.33
2017-07-12T11:45:07.111Z,15.00
2017-07-12T11:47:35.468Z,3.80
2017-07-12T11:50:03.807Z,9.90
2017-07-12T11:52:32.280Z,4.53
2017-07-12T11:55:00.625Z,6.90
2017-07-12T11:57:29.032Z,1.70
2017-07-12T11:59:57.786Z,4.40
2017-07-12T12:02:27.221Z,4.57
2017-07-12T12:04:55.636Z,3.63
2017-07-12T12:07:25.534Z,3.13
2017-07-12T12:09:53.919Z,5.33
2017-07-12T12:12:22.265Z,7.37
2017-07-12T12:14:51.902Z,10.33
2017-07-12T12:17:20.397Z,5.13
2017-07-12T12:19:48.835Z,5.30
2017-07-12T12:22:17.553Z,3.90
2017-07-12T12:24:46.020Z,6.77
2017-07-12T12:27:14.784Z,4.00
2017-07-12T12:29:43.522Z,4.30
2017-07-12T12:32:11.936Z,7.80
2017-07-12T12:34:40.458Z,9.07
2017-07-12T12:37:09.429Z,6.27
2017-07-12T12:39:37.778Z,9.43
2017-07-12T12:42:07.236Z,3.73
2017-07-12T12:44:35.795Z,13.80
2017-07-12T12:47:04.221Z,5.90
2017-07-12T12:49:32.549Z,6.03
2017-07-12T12:52:01.284Z,7.00
2017-07-12T12:54:29.640Z,3.57
2017-07-12T12:56:58.089Z,7.47
2017-07-12T12:59:26.837Z,8.17
2017-07-12T13:01:55.258Z,7.33
2017-07-12T13:04:29.435Z,8.00
2017-07-12T13:06:58.872Z,6.07
2017-07-12T13:09:27.263Z,12.57
2017-07-12T13:11:56.697Z,5.37
2017-07-12T13:14:25.155Z,6.47
2017-07-12T13:16:54.573Z,11.57
2017-07-12T13:19:23.467Z,9.57
2017-07-12T13:21:51.835Z,14.63
2017-07-12T13:24:20.709Z,9.33
2017-07-12T13:26:50.316Z,9.17
2017-07-12T13:29:19.003Z,12.50
2017-07-12T13:31:47.485Z,12.80
2017-07-12T13:34:16.316Z,9.00
2017-07-12T13:36:45.127Z,22.30
2017-07-12T13:39:14.250Z,15.30
2017-07-12T13:41:42.943Z,8.43
2017-07-12T13:44:12.059Z,17.03
2017-07-12T13:46:40.416Z,13.33
2017-07-12T13:49:09.113Z,15.10
2017-07-12T13:51:37.473Z,9.10
2017-07-12T13:54:06.929Z,23.90
2017-07-12T13:56:36.561Z,18.80
2017-07-12T13:59:05.014Z,13.13
2017-07-12T14:01:33.522Z,19.93
2017-07-12T14:04:02.004Z,14.43
2017-07-12T14:06:31.118Z,18.80
2017-07-12T14:08:59.477Z,14.90
2017-07-12T14:11:31.507Z,26.33
2017-07-12T14:14:00.655Z,20.73
2017-07-12T14:16:29.031Z,17.60
2017-07-12T14:18:58.121Z,26.90
2017-07-12T14:21:27.431Z,13.20
2017-07-12T14:23:55.808Z,20.73
2017-07-12T14:26:24.988Z,9.30
2017-07-12T14:28:53.412Z,18.80
2017-07-12T14:31:22.558Z,16.23
2017-07-12T14:33:51.878Z,20.30
2017-07-12T14:36:20.295Z,14.40
2017-07-12T14:38:48.760Z,24.40
2017-07-12T14:41:20.539Z,18.63
2017-07-12T14:43:53.480Z,20.57
2017-07-12T14:46:23.510Z,12.87
2017-07-12T14:48:52.595Z,21.83
2017-07-12T14:51:21.094Z,8.97
2017-07-12T14:53:49.898Z,11.37
2017-07-12T14:56:18.277Z,6.53
2017-07-12T14:58:46.698Z,21.10
2017-07-12T15:01:16.040Z,3.43
2017-07-12T15:03:45.307Z,8.97
2017-07-12T15:06:13.655Z,10.40
2017-07-12T15:08:42.330Z,8.83
2017-07-12T15:11:10.667Z,13.83
2017-07-12T15:13:39.100Z,8.23
2017-07-12T15:16:08.256Z,13.93
2017-07-12T15:18:36.565Z,10.30
2017-07-12T15:21:05.659Z,9.83
2017-07-12T15:23:34.587Z,5.80
2017-07-12T15:26:02.927Z,11.77
2017-07-12T15:28:31.266Z,3.10
2017-07-12T15:30:59.952Z,3.77
2017-07-12T15:33:28.361Z,7.07
2017-07-12T15:35:57.948Z,17.03
2017-07-12T15:38:27.803Z,7.70
2017-07-12T15:40:56.149Z,5.90
2017-07-12T15:43:24.621Z,10.30
2017-07-12T15:45:53.454Z,13.30
2017-07-12T15:48:22.745Z,14.47
2017-07-12T15:50:52.000Z,7.10
2017-07-12T15:53:21.377Z,12.60
2017-07-12T15:55:50.041Z,5.40
2017-07-12T15:58:18.666Z,6.87
2017-07-12T16:00:47.360Z,13.90
2017-07-12T16:03:16.719Z,13.43
2017-07-12T16:05:45.207Z,12.00
2017-07-12T16:08:13.994Z,7.20
2017-07-12T16:10:42.402Z,8.90
2017-07-12T16:13:10.728Z,10.83
2017-07-12T16:15:39.609Z,15.37
2017-07-12T16:18:07.950Z,15.80
2017-07-12T16:20:36.345Z,9.23
2017-07-12T16:23:05.312Z,12.53
2017-07-12T16:25:34.653Z,17.73
2017-07-12T16:28:03.728Z,14.93
2017-07-12T16:30:32.879Z,11.63
2017-07-12T16:33:01.239Z,9.30
2017-07-12T16:35:29.567Z,10.87
2017-07-12T16:38:00.432Z,12.70
2017-07-12T16:40:29.591Z,10.60
2017-07-12T16:42:57.997Z,7.93
2017-07-12T16:45:27.732Z,8.80
2017-07-12T16:47:56.100Z,8.70
2017-07-12T16:50:24.439Z,5.83
2017-07-12T16:52:53.387Z,5.40
2017-07-12T16:55:22.550Z,7.40
2017-07-12T16:57:50.893Z,4.83
2017-07-12T17:00:19.681Z,6.77
2017-07-12T17:02:48.092Z,3.00
2017-07-12T17:05:17.063Z,10.37
2017-07-12T17:07:46.387Z,3.00
2017-07-12T17:10:14.885Z,6.90
2017-07-12T17:12:43.518Z,4.20
2017-07-12T17:15:12.439Z,5.80
2017-07-12T17:17:42.796Z,4.53
2017-07-12T17:20:11.177Z,3.27
2017-07-12T17:22:43.105Z,3.03
2017-07-12T17:25:11.551Z,1.43
2017-07-12T17:27:40.621Z,5.27
2017-07-12T17:30:10.165Z,6.33
2017-07-12T17:32:38.530Z,4.97
2017-07-12T17:35:06.919Z,6.67
2017-07-12T17:37:35.853Z,6.83
2017-07-12T17:43:04.267Z,7.93
2017-07-12T17:45:32.675Z,25.47
2017-07-12T17:48:01.976Z,5.17
2017-07-12T17:50:30.680Z,6.53
2017-07-12T17:52:59.239Z,3.37
2017-07-12T17:55:27.668Z,2.57
2017-07-12T17:57:57.918Z,8.17
2017-07-12T18:00:26.465Z,5.77
2017-07-12T18:02:56.424Z,3.60
2017-07-12T18:05:27.172Z,6.63
2017-07-12T18:07:55.720Z,12.60
2017-07-12T18:10:24.580Z,3.27
2017-07-12T18:12:53.590Z,13.93
2017-07-12T18:15:22.435Z,13.03
2017-07-12T18:17:56.215Z,7.10
2017-07-12T18:20:25.007Z,8.17
2017-07-12T18:22:53.557Z,5.50
2017-07-12T18:25:22.067Z,7.03
2017-07-12T18:27:50.506Z,16.43
2017-07-12T18:30:19.188Z,12.60
2017-07-12T18:32:48.563Z,13.70
2017-07-12T18:35:17.454Z,5.23
2017-07-12T18:37:46.094Z,5.10
2017-07-12T18:40:15.195Z,8.67
2017-07-12T18:42:44.878Z,7.27
2017-07-12T18:45:14.245Z,8.33
2017-07-12T18:47:43.088Z,18.07
2017-07-12T18:50:11.514Z,8.93
2017-07-12T18:52:40.029Z,7.80
2017-07-12T18:55:09.589Z,7.50
2017-07-12T18:57:37.986Z,6.43
2017-07-12T19:00:07.278Z,10.43
2017-07-12T19:02:36.936Z,12.53
2017-07-12T19:05:05.342Z,16.60
2017-07-12T19:07:34.951Z,8.50
2017-07-12T19:10:06.942Z,8.53
2017-07-12T19:12:35.484Z,5.63
2017-07-12T19:15:03.962Z,5.87
2017-07-12T19:17:32.845Z,9.20
2017-07-12T19:20:02.384Z,10.90
2017-07-12T19:22:30.748Z,12.47
2017-07-12T19:24:59.368Z,10.93
2017-07-12T19:27:28.861Z,3.43
2017-07-12T19:29:59.461Z,7.50
2017-07-12T19:32:28.611Z,14.50
2017-07-12T19:34:57.178Z,9.40
2017-07-12T19:37:26.526Z,8.60
2017-07-12T19:39:56.257Z,5.63
2017-07-12T19:42:24.924Z,19.23
2017-07-12T19:44:53.646Z,14.23
2017-07-12T19:47:22.814Z,16.97
2017-07-12T19:49:51.282Z,4.93
2017-07-12T19:52:19.728Z,6.97
2017-07-12T19:54:48.595Z,11.23
2017-07-12T19:57:17.626Z,7.27
2017-07-12T19:59:46.135Z,20.33
2017-07-12T20:02:15.949Z,7.97
2017-07-12T20:04:44.378Z,8.23
2017-07-12T20:07:12.861Z,4.90
2017-07-12T20:09:42.114Z,13.73
2017-07-12T20:12:10.563Z,16.30
2017-07-12T20:14:39.910Z,10.00
2017-07-12T20:17:08.514Z,19.90
2017-07-12T20:19:36.859Z,16.87
2017-07-12T20:22:05.208Z,14.17
2017-07-12T20:24:34.942Z,11.63
2017-07-12T20:27:03.280Z,9.43
2017-07-12T20:29:31.732Z,12.57
2017-07-12T20:32:00.279Z,25.57
2017-07-12T20:34:29.649Z,19.53
2017-07-12T20:36:58.024Z,19.63
2017-07-12T20:39:27.351Z,23.93
2017-07-12T20:41:55.743Z,17.10
2017-07-12T20:44:24.236Z,20.77
2017-07-12T20:46:53.948Z,16.50
2017-07-12T20:49:23.593Z,7.73
2017-07-12T20:51:52.177Z,7.93
2017-07-12T20:54:21.334Z,17.63
2017-07-12T20:56:50.066Z,16.73
2017-07-12T20:59:18.866Z,14.43
2017-07-12T21:01:48.620Z,32.40
2017-07-12T21:04:17.961Z,20.53
2017-07-12T21:06:46.848Z,22.67
2017-07-12T21:09:15.786Z,15.60
2017-07-12T21:11:46.118Z,16.00
2017-07-12T21:14:14.550Z,9.67
2017-07-12T21:16:44.236Z,15.30
2017-07-12T21:19:12.637Z,16.70
2017-07-12T21:21:42.094Z,13.13
2017-07-12T21:24:10.512Z,19.23
2017-07-12T21:26:38.840Z,23.17
2017-07-12T21:29:07.200Z,12.67
2017-07-12T21:31:36.169Z,25.70
2017-07-12T21:34:04.527Z,17.73
2017-07-12T21:36:32.920Z,32.30
2017-07-12T21:39:01.501Z,17.93
2017-07-12T21:41:29.912Z,10.33
2017-07-12T21:43:58.359Z,20.80
2017-07-12T21:46:27.657Z,21.20
2017-07-12T21:48:56.089Z,23.73
2017-07-12T21:51:25.414Z,12.63
2017-07-12T21:54:11.748Z,11.90
2017-07-12T21:56:57.753Z,25.33
2017-07-12T21:59:44.103Z,29.20
2017-07-12T22:02:29.918Z,14.50
2017-07-12T22:05:15.991Z,19.23
2017-07-12T22:08:02.130Z,27.80
2017-07-12T22:10:48.122Z,35.37
2017-07-12T22:13:35.549Z,22.60
2017-07-12T22:16:22.592Z,12.23
2017-07-12T22:19:08.548Z,21.07
2017-07-12T22:21:55.523Z,18.17
2017-07-12T22:24:42.339Z,15.60
2017-07-12T22:27:28.269Z,15.90
2017-07-12T22:30:14.315Z,7.50
2017-07-12T22:33:00.714Z,20.83
2017-07-12T22:35:46.710Z,17.97
2017-07-12T22:38:21.251Z,30.93
2017-07-12T22:40:55.353Z,21.73
2017-07-12T22:43:30.417Z,14.40
2017-07-12T22:45:58.804Z,16.83
2017-07-12T22:48:27.922Z,12.10
2017-07-12T22:50:56.627Z,9.87
2017-07-12T22:53:24.975Z,10.73
2017-07-12T22:55:53.396Z,22.97
2017-07-12T22:58:22.757Z,15.90
2017-07-12T23:00:51.893Z,27.30
2017-07-12T23:03:20.316Z,16.70
2017-07-12T23:05:50.009Z,20.23
2017-07-12T23:08:18.722Z,13.10
2017-07-12T23:10:47.319Z,17.27
2017-07-12T23:13:16.714Z,13.07
2017-07-12T23:15:45.167Z,19.75
2017-07-12T23:18:13.638Z,16.03
2017-07-12T23:20:44.156Z,25.60
2017-07-12T23:23:12.507Z,21.83
2017-07-12T23:25:40.849Z,22.08
2017-07-12T23:28:09.864Z,17.67
2017-07-12T23:30:38.207Z,29.33
2017-07-12T23:33:06.542Z,10.43
2017-07-12T23:35:35.973Z,10.07
2017-07-12T23:38:04.302Z,16.52
2017-07-12T23:40:32.656Z,19.50
2017-07-12T23:43:01.125Z,27.48
2017-07-12T23:45:29.499Z,17.42
2017-07-12T23:47:57.849Z,20.70
2017-07-12T23:50:27.152Z,20.23
2017-07-12T23:52:55.504Z,15.38
2017-07-12T23:55:23.867Z,17.67
2017-07-12T23:57:53.174Z,12.63
